sensor_id;sensor_type;location;lat;lon;timestamp;P1;durP1;ratioP1;P2;durP2;ratioP2
6735;SDS011;3405;50.576;12.364;2023-05-14T00:00:17;2.33;;;2.13;;
6735;SDS011;3405;50.576;12.364;2023-05-14T00:02:43;2.33;;;2.03;;
6735;SDS011;3405;50.576;12.364;2023-05-14T00:05:09;2.92;;;2.63;;
6735;SDS011;3405;50.576;12.364;2023-05-14T00:07:35;2.70;;;2.50;;
6735;SDS011;3405;50.576;12.364;2023-05-14T00:10:01;2.83;;;2.63;;
6735;SDS011;3405;50.576;12.364;2023-05-14T00:12:26;2.90;;;2.70;;
6735;SDS011;3405;50.576;12.364;2023-05-14T00:14:53;2.83;;;2.55;;
6735;SDS011;3405;50.576;12.364;2023-05-14T00:17:19;4.22;;;2.92;;
6735;SDS011;3405;50.576;12.364;2023-05-14T00:19:45;3.35;;;2.95;;
6735;SDS011;3405;50.576;12.364;2023-05-14T00:22:11;2.90;;;2.70;;
6735;SDS011;3405;50.576;12.364;2023-05-14T00:24:37;3.00;;;2.70;;
6735;SDS011;3405;50.576;12.364;2023-05-14T00:27:03;3.90;;;3.30;;
6735;SDS011;3405;50.576;12.364;2023-05-14T00:29:29;3.50;;;2.97;;
6735;SDS011;3405;50.576;12.364;2023-05-14T00:31:55;5.68;;;3.20;;
6735;SDS011;3405;50.576;12.364;2023-05-14T00:34:21;4.40;;;3.15;;
6735;SDS011;3405;50.576;12.364;2023-05-14T00:36:47;3.47;;;3.17;;
6735;SDS011;3405;50.576;12.364;2023-05-14T00:39:13;3.53;;;3.22;;
6735;SDS011;3405;50.576;12.364;2023-05-14T00:41:39;3.50;;;3.20;;
6735;SDS011;3405;50.576;12.364;2023-05-14T00:44:05;4.50;;;3.10;;
6735;SDS011;3405;50.576;12.364;2023-05-14T00:46:31;3.92;;;3.00;;
6735;SDS011;3405;50.576;12.364;2023-05-14T00:48:57;3.10;;;2.80;;
6735;SDS011;3405;50.576;12.364;2023-05-14T00:51:23;3.53;;;3.22;;
6735;SDS011;3405;50.576;12.364;2023-05-14T00:53:49;3.13;;;2.75;;
6735;SDS011;3405;50.576;12.364;2023-05-14T00:56:15;3.92;;;3.20;;
6735;SDS011;3405;50.576;12.364;2023-05-14T00:58:42;3.60;;;3.30;;
6735;SDS011;3405;50.576;12.364;2023-05-14T01:01:08;6.15;;;3.10;;
6735;SDS011;3405;50.576;12.364;2023-05-14T01:03:34;4.15;;;3.58;;
6735;SDS011;3405;50.576;12.364;2023-05-14T01:11:25;4.78;;;3.88;;
6735;SDS011;3405;50.576;12.364;2023-05-14T01:14:13;3.67;;;3.28;;
6735;SDS011;3405;50.576;12.364;2023-05-14T01:16:41;3.45;;;3.15;;
6735;SDS011;3405;50.576;12.364;2023-05-14T01:19:09;4.10;;;3.28;;
6735;SDS011;3405;50.576;12.364;2023-05-14T01:21:42;3.80;;;3.40;;
6735;SDS011;3405;50.576;12.364;2023-05-14T01:24:08;3.40;;;3.10;;
6735;SDS011;3405;50.576;12.364;2023-05-14T01:26:34;3.47;;;3.17;;
6735;SDS011;3405;50.576;12.364;2023-05-14T01:29:21;2.75;;;2.53;;
6735;SDS011;3405;50.576;12.364;2023-05-14T01:31:47;2.83;;;2.47;;
6735;SDS011;3405;50.576;12.364;2023-05-14T01:34:14;4.90;;;3.30;;
6735;SDS011;3405;50.576;12.364;2023-05-14T01:36:41;3.13;;;2.83;;
6735;SDS011;3405;50.576;12.364;2023-05-14T01:39:07;4.95;;;2.85;;
6735;SDS011;3405;50.576;12.364;2023-05-14T01:41:34;4.97;;;2.90;;
6735;SDS011;3405;50.576;12.364;2023-05-14T01:44:00;3.17;;;2.80;;
6735;SDS011;3405;50.576;12.364;2023-05-14T01:46:30;2.90;;;2.60;;
6735;SDS011;3405;50.576;12.364;2023-05-14T01:48:55;6.25;;;3.30;;
6735;SDS011;3405;50.576;12.364;2023-05-14T01:51:21;3.20;;;2.90;;
6735;SDS011;3405;50.576;12.364;2023-05-14T01:53:47;3.45;;;2.83;;
6735;SDS011;3405;50.576;12.364;2023-05-14T01:56:13;3.42;;;3.13;;
6735;SDS011;3405;50.576;12.364;2023-05-14T01:58:39;4.80;;;2.90;;
6735;SDS011;3405;50.576;12.364;2023-05-14T02:01:05;3.60;;;3.30;;
6735;SDS011;3405;50.576;12.364;2023-05-14T02:03:31;6.93;;;3.47;;
6735;SDS011;3405;50.576;12.364;2023-05-14T02:05:57;3.47;;;3.17;;
6735;SDS011;3405;50.576;12.364;2023-05-14T02:08:23;4.40;;;3.50;;
6735;SDS011;3405;50.576;12.364;2023-05-14T02:10:49;3.40;;;3.03;;
6735;SDS011;3405;50.576;12.364;2023-05-14T02:13:15;4.47;;;3.60;;
6735;SDS011;3405;50.576;12.364;2023-05-14T02:15:41;3.55;;;2.92;;
6735;SDS011;3405;50.576;12.364;2023-05-14T02:18:07;4.28;;;3.00;;
6735;SDS011;3405;50.576;12.364;2023-05-14T02:20:33;4.80;;;3.45;;
6735;SDS011;3405;50.576;12.364;2023-05-14T02:22:59;3.88;;;3.30;;
6735;SDS011;3405;50.576;12.364;2023-05-14T02:25:25;3.20;;;2.90;;
6735;SDS011;3405;50.576;12.364;2023-05-14T02:27:51;3.95;;;3.40;;
6735;SDS011;3405;50.576;12.364;2023-05-14T02:30:17;6.43;;;3.35;;
6735;SDS011;3405;50.576;12.364;2023-05-14T02:32:42;4.30;;;3.20;;
6735;SDS011;3405;50.576;12.364;2023-05-14T02:35:08;3.90;;;3.30;;
6735;SDS011;3405;50.576;12.364;2023-05-14T02:37:34;4.05;;;3.28;;
6735;SDS011;3405;50.576;12.364;2023-05-14T02:40:00;3.42;;;2.85;;
6735;SDS011;3405;50.576;12.364;2023-05-14T02:42:26;3.95;;;2.80;;
6735;SDS011;3405;50.576;12.364;2023-05-14T02:44:52;4.75;;;3.05;;
6735;SDS011;3405;50.576;12.364;2023-05-14T02:47:18;3.53;;;2.78;;
6735;SDS011;3405;50.576;12.364;2023-05-14T02:49:44;3.13;;;2.75;;
6735;SDS011;3405;50.576;12.364;2023-05-14T02:52:10;3.60;;;3.03;;
6735;SDS011;3405;50.576;12.364;2023-05-14T02:54:36;3.05;;;2.75;;
6735;SDS011;3405;50.576;12.364;2023-05-14T02:57:02;3.70;;;3.08;;
6735;SDS011;3405;50.576;12.364;2023-05-14T02:59:28;3.42;;;3.10;;
6735;SDS011;3405;50.576;12.364;2023-05-14T03:01:55;3.72;;;3.17;;
6735;SDS011;3405;50.576;12.364;2023-05-14T03:04:22;3.35;;;2.80;;
6735;SDS011;3405;50.576;12.364;2023-05-14T03:06:48;3.10;;;2.75;;
6735;SDS011;3405;50.576;12.364;2023-05-14T03:09:14;3.95;;;3.58;;
6735;SDS011;3405;50.576;12.364;2023-05-14T03:11:40;3.47;;;2.83;;
6735;SDS011;3405;50.576;12.364;2023-05-14T03:14:06;4.65;;;3.28;;
6735;SDS011;3405;50.576;12.364;2023-05-14T03:16:32;3.65;;;3.22;;
6735;SDS011;3405;50.576;12.364;2023-05-14T03:18:58;3.40;;;3.10;;
6735;SDS011;3405;50.576;12.364;2023-05-14T03:21:24;3.25;;;2.90;;
6735;SDS011;3405;50.576;12.364;2023-05-14T03:23:51;4.97;;;3.30;;
6735;SDS011;3405;50.576;12.364;2023-05-14T03:26:17;3.72;;;3.20;;
6735;SDS011;3405;50.576;12.364;2023-05-14T03:28:43;3.25;;;2.88;;
6735;SDS011;3405;50.576;12.364;2023-05-14T03:31:09;4.65;;;3.00;;
6735;SDS011;3405;50.576;12.364;2023-05-14T03:33:35;4.15;;;3.50;;
6735;SDS011;3405;50.576;12.364;2023-05-14T03:36:01;3.90;;;3.55;;
6735;SDS011;3405;50.576;12.364;2023-05-14T03:38:27;7.60;;;6.22;;
6735;SDS011;3405;50.576;12.364;2023-05-14T03:40:53;7.03;;;6.03;;
6735;SDS011;3405;50.576;12.364;2023-05-14T03:43:18;8.43;;;6.38;;
6735;SDS011;3405;50.576;12.364;2023-05-14T03:45:44;7.13;;;6.30;;
6735;SDS011;3405;50.576;12.364;2023-05-14T03:48:10;6.72;;;5.97;;
6735;SDS011;3405;50.576;12.364;2023-05-14T03:50:36;9.63;;;5.68;;
6735;SDS011;3405;50.576;12.364;2023-05-14T03:53:02;6.25;;;5.65;;
6735;SDS011;3405;50.576;12.364;2023-05-14T03:55:28;6.47;;;5.28;;
6735;SDS011;3405;50.576;12.364;2023-05-14T03:57:54;6.00;;;4.82;;
6735;SDS011;3405;50.576;12.364;2023-05-14T04:00:20;5.43;;;4.88;;
6735;SDS011;3405;50.576;12.364;2023-05-14T04:02:46;5.75;;;4.65;;
6735;SDS011;3405;50.576;12.364;2023-05-14T04:05:12;5.90;;;4.70;;
6735;SDS011;3405;50.576;12.364;2023-05-14T04:07:38;4.40;;;3.97;;
6735;SDS011;3405;50.576;12.364;2023-05-14T04:10:04;4.35;;;3.95;;
6735;SDS011;3405;50.576;12.364;2023-05-14T04:12:30;4.45;;;3.80;;
6735;SDS011;3405;50.576;12.364;2023-05-14T04:14:56;3.67;;;3.38;;
6735;SDS011;3405;50.576;12.364;2023-05-14T04:17:22;4.78;;;3.80;;
6735;SDS011;3405;50.576;12.364;2023-05-14T04:19:48;3.97;;;3.58;;
6735;SDS011;3405;50.576;12.364;2023-05-14T04:22:14;5.88;;;3.63;;
6735;SDS011;3405;50.576;12.364;2023-05-14T04:24:40;3.35;;;3.05;;
6735;SDS011;3405;50.576;12.364;2023-05-14T04:27:06;3.33;;;2.97;;
6735;SDS011;3405;50.576;12.364;2023-05-14T04:29:32;4.30;;;3.00;;
6735;SDS011;3405;50.576;12.364;2023-05-14T04:31:57;4.40;;;3.40;;
6735;SDS011;3405;50.576;12.364;2023-05-14T04:34:24;4.82;;;3.53;;
6735;SDS011;3405;50.576;12.364;2023-05-14T04:36:50;4.80;;;3.75;;
6735;SDS011;3405;50.576;12.364;2023-05-14T04:39:16;3.80;;;3.50;;
6735;SDS011;3405;50.576;12.364;2023-05-14T04:41:43;3.20;;;2.90;;
6735;SDS011;3405;50.576;12.364;2023-05-14T04:44:11;6.15;;;3.33;;
6735;SDS011;3405;50.576;12.364;2023-05-14T04:46:37;7.40;;;2.88;;
6735;SDS011;3405;50.576;12.364;2023-05-14T04:49:03;4.80;;;2.35;;
6735;SDS011;3405;50.576;12.364;2023-05-14T04:51:29;5.80;;;2.30;;
6735;SDS011;3405;50.576;12.364;2023-05-14T04:53:55;5.80;;;2.42;;
6735;SDS011;3405;50.576;12.364;2023-05-14T04:56:21;2.95;;;2.35;;
6735;SDS011;3405;50.576;12.364;2023-05-14T04:58:47;4.65;;;2.05;;
6735;SDS011;3405;50.576;12.364;2023-05-14T05:01:13;4.00;;;2.70;;
6735;SDS011;3405;50.576;12.364;2023-05-14T05:03:39;4.97;;;2.22;;
6735;SDS011;3405;50.576;12.364;2023-05-14T05:06:05;6.80;;;2.33;;
6735;SDS011;3405;50.576;12.364;2023-05-14T05:08:31;6.35;;;2.25;;
6735;SDS011;3405;50.576;12.364;2023-05-14T05:10:57;4.13;;;2.80;;
6735;SDS011;3405;50.576;12.364;2023-05-14T05:13:23;5.80;;;2.90;;
6735;SDS011;3405;50.576;12.364;2023-05-14T05:15:49;4.43;;;3.08;;
6735;SDS011;3405;50.576;12.364;2023-05-14T05:18:15;4.47;;;3.00;;
6735;SDS011;3405;50.576;12.364;2023-05-14T05:20:40;6.45;;;3.47;;
6735;SDS011;3405;50.576;12.364;2023-05-14T05:23:06;5.55;;;3.20;;
6735;SDS011;3405;50.576;12.364;2023-05-14T05:25:32;5.93;;;3.25;;
6735;SDS011;3405;50.576;12.364;2023-05-14T05:27:58;6.88;;;3.17;;
6735;SDS011;3405;50.576;12.364;2023-05-14T05:30:24;4.90;;;3.30;;
6735;SDS011;3405;50.576;12.364;2023-05-14T05:32:50;4.07;;;2.83;;
6735;SDS011;3405;50.576;12.364;2023-05-14T05:35:16;3.10;;;2.70;;
6735;SDS011;3405;50.576;12.364;2023-05-14T05:37:42;4.05;;;2.72;;
6735;SDS011;3405;50.576;12.364;2023-05-14T05:40:09;5.57;;;2.17;;
6735;SDS011;3405;50.576;12.364;2023-05-14T05:42:35;2.58;;;2.13;;
6735;SDS011;3405;50.576;12.364;2023-05-14T05:45:01;4.65;;;2.33;;
6735;SDS011;3405;50.576;12.364;2023-05-14T05:47:27;7.07;;;2.63;;
6735;SDS011;3405;50.576;12.364;2023-05-14T05:49:54;8.43;;;2.55;;
6735;SDS011;3405;50.576;12.364;2023-05-14T05:52:19;6.28;;;3.05;;
6735;SDS011;3405;50.576;12.364;2023-05-14T05:54:45;4.45;;;2.90;;
6735;SDS011;3405;50.576;12.364;2023-05-14T05:57:11;10.20;;;2.80;;
6735;SDS011;3405;50.576;12.364;2023-05-14T05:59:37;4.75;;;3.00;;
6735;SDS011;3405;50.576;12.364;2023-05-14T06:02:03;5.72;;;3.00;;
6735;SDS011;3405;50.576;12.364;2023-05-14T06:04:29;13.35;;;3.72;;
6735;SDS011;3405;50.576;12.364;2023-05-14T06:06:55;11.25;;;3.30;;
6735;SDS011;3405;50.576;12.364;2023-05-14T06:09:21;11.43;;;3.60;;
6735;SDS011;3405;50.576;12.364;2023-05-14T06:11:47;6.07;;;3.60;;
6735;SDS011;3405;50.576;12.364;2023-05-14T06:14:13;7.25;;;3.50;;
6735;SDS011;3405;50.576;12.364;2023-05-14T06:16:39;8.43;;;3.70;;
6735;SDS011;3405;50.576;12.364;2023-05-14T06:19:05;7.05;;;3.45;;
6735;SDS011;3405;50.576;12.364;2023-05-14T06:21:32;4.50;;;3.40;;
6735;SDS011;3405;50.576;12.364;2023-05-14T06:23:58;6.55;;;3.55;;
6735;SDS011;3405;50.576;12.364;2023-05-14T06:26:24;5.00;;;3.10;;
6735;SDS011;3405;50.576;12.364;2023-05-14T06:28:50;4.82;;;3.53;;
6735;SDS011;3405;50.576;12.364;2023-05-14T06:31:16;7.30;;;3.10;;
6735;SDS011;3405;50.576;12.364;2023-05-14T06:33:42;9.93;;;2.85;;
6735;SDS011;3405;50.576;12.364;2023-05-14T06:36:09;4.72;;;3.15;;
6735;SDS011;3405;50.576;12.364;2023-05-14T06:38:35;4.25;;;3.15;;
6735;SDS011;3405;50.576;12.364;2023-05-14T06:41:01;4.10;;;3.20;;
6735;SDS011;3405;50.576;12.364;2023-05-14T06:43:27;3.95;;;3.47;;
6735;SDS011;3405;50.576;12.364;2023-05-14T06:45:53;3.60;;;3.30;;
6735;SDS011;3405;50.576;12.364;2023-05-14T06:48:19;6.28;;;3.58;;
6735;SDS011;3405;50.576;12.364;2023-05-14T06:50:48;3.45;;;3.15;;
6735;SDS011;3405;50.576;12.364;2023-05-14T06:53:14;3.58;;;3.28;;
6735;SDS011;3405;50.576;12.364;2023-05-14T06:55:40;3.22;;;3.00;;
6735;SDS011;3405;50.576;12.364;2023-05-14T06:58:06;5.63;;;3.60;;
6735;SDS011;3405;50.576;12.364;2023-05-14T07:00:32;4.18;;;3.60;;
6735;SDS011;3405;50.576;12.364;2023-05-14T07:02:58;4.07;;;3.50;;
6735;SDS011;3405;50.576;12.364;2023-05-14T07:05:24;3.55;;;3.20;;
6735;SDS011;3405;50.576;12.364;2023-05-14T07:07:50;3.80;;;3.25;;
6735;SDS011;3405;50.576;12.364;2023-05-14T07:10:16;3.60;;;3.10;;
6735;SDS011;3405;50.576;12.364;2023-05-14T07:12:42;4.43;;;3.42;;
6735;SDS011;3405;50.576;12.364;2023-05-14T07:15:09;4.68;;;3.22;;
6735;SDS011;3405;50.576;12.364;2023-05-14T07:17:36;2.97;;;2.67;;
6735;SDS011;3405;50.576;12.364;2023-05-14T07:20:02;3.65;;;3.00;;
6735;SDS011;3405;50.576;12.364;2023-05-14T07:22:28;2.97;;;2.70;;
6735;SDS011;3405;50.576;12.364;2023-05-14T07:24:53;3.15;;;2.70;;
6735;SDS011;3405;50.576;12.364;2023-05-14T07:27:20;11.55;;;3.25;;
6735;SDS011;3405;50.576;12.364;2023-05-14T07:29:50;4.97;;;2.92;;
6735;SDS011;3405;50.576;12.364;2023-05-14T07:32:16;3.05;;;2.78;;
6735;SDS011;3405;50.576;12.364;2023-05-14T07:34:42;3.75;;;2.83;;
6735;SDS011;3405;50.576;12.364;2023-05-14T07:37:08;3.10;;;2.75;;
6735;SDS011;3405;50.576;12.364;2023-05-14T07:39:34;4.05;;;2.80;;
6735;SDS011;3405;50.576;12.364;2023-05-14T07:42:00;4.38;;;3.30;;
6735;SDS011;3405;50.576;12.364;2023-05-14T07:44:26;3.38;;;3.08;;
6735;SDS011;3405;50.576;12.364;2023-05-14T07:46:51;3.63;;;3.10;;
6735;SDS011;3405;50.576;12.364;2023-05-14T07:49:17;3.05;;;2.70;;
6735;SDS011;3405;50.576;12.364;2023-05-14T07:51:43;3.13;;;2.70;;
6735;SDS011;3405;50.576;12.364;2023-05-14T07:54:09;5.20;;;2.72;;
6735;SDS011;3405;50.576;12.364;2023-05-14T07:56:35;3.60;;;2.70;;
6735;SDS011;3405;50.576;12.364;2023-05-14T07:59:01;3.90;;;3.17;;
6735;SDS011;3405;50.576;12.364;2023-05-14T08:01:27;3.88;;;2.80;;
6735;SDS011;3405;50.576;12.364;2023-05-14T08:03:53;2.72;;;2.53;;
6735;SDS011;3405;50.576;12.364;2023-05-14T08:06:19;4.57;;;2.88;;
6735;SDS011;3405;50.576;12.364;2023-05-14T08:08:46;2.70;;;2.50;;
6735;SDS011;3405;50.576;12.364;2023-05-14T08:11:12;4.78;;;2.75;;
6735;SDS011;3405;50.576;12.364;2023-05-14T08:13:38;2.72;;;2.53;;
6735;SDS011;3405;50.576;12.364;2023-05-14T08:16:04;2.97;;;2.35;;
6735;SDS011;3405;50.576;12.364;2023-05-14T08:18:31;3.65;;;2.90;;
6735;SDS011;3405;50.576;12.364;2023-05-14T08:20:57;3.05;;;2.75;;
6735;SDS011;3405;50.576;12.364;2023-05-14T08:23:22;3.13;;;2.65;;
6735;SDS011;3405;50.576;12.364;2023-05-14T08:25:48;3.92;;;2.65;;
6735;SDS011;3405;50.576;12.364;2023-05-14T08:28:16;3.22;;;2.92;;
6735;SDS011;3405;50.576;12.364;2023-05-14T08:30:47;3.33;;;3.00;;
6735;SDS011;3405;50.576;12.364;2023-05-14T08:33:13;2.55;;;2.35;;
6735;SDS011;3405;50.576;12.364;2023-05-14T08:35:39;3.20;;;2.40;;
6735;SDS011;3405;50.576;12.364;2023-05-14T08:38:05;3.75;;;2.67;;
6735;SDS011;3405;50.576;12.364;2023-05-14T08:40:31;3.45;;;2.90;;
6735;SDS011;3405;50.576;12.364;2023-05-14T08:42:57;3.08;;;2.72;;
6735;SDS011;3405;50.576;12.364;2023-05-14T08:45:25;2.80;;;2.60;;
6735;SDS011;3405;50.576;12.364;2023-05-14T08:47:52;2.78;;;2.58;;
6735;SDS011;3405;50.576;12.364;2023-05-14T08:50:19;3.42;;;3.00;;
6735;SDS011;3405;50.576;12.364;2023-05-14T08:52:46;4.32;;;2.80;;
6735;SDS011;3405;50.576;12.364;2023-05-14T08:55:12;2.90;;;2.70;;
6735;SDS011;3405;50.576;12.364;2023-05-14T08:57:39;2.58;;;2.38;;
6735;SDS011;3405;50.576;12.364;2023-05-14T09:00:05;5.55;;;3.28;;
6735;SDS011;3405;50.576;12.364;2023-05-14T09:02:38;4.55;;;2.75;;
6735;SDS011;3405;50.576;12.364;2023-05-14T09:05:04;4.65;;;2.80;;
6735;SDS011;3405;50.576;12.364;2023-05-14T09:07:31;4.28;;;2.88;;
6735;SDS011;3405;50.576;12.364;2023-05-14T09:09:57;3.08;;;2.70;;
6735;SDS011;3405;50.576;12.364;2023-05-14T09:12:24;3.47;;;2.60;;
6735;SDS011;3405;50.576;12.364;2023-05-14T09:14:50;4.10;;;3.00;;
6735;SDS011;3405;50.576;12.364;2023-05-14T09:17:16;4.10;;;3.28;;
6735;SDS011;3405;50.576;12.364;2023-05-14T09:19:43;5.18;;;3.22;;
6735;SDS011;3405;50.576;12.364;2023-05-14T09:22:13;3.67;;;2.95;;
6735;SDS011;3405;50.576;12.364;2023-05-14T09:24:39;3.78;;;3.17;;
6735;SDS011;3405;50.576;12.364;2023-05-14T09:27:05;3.45;;;3.15;;
6735;SDS011;3405;50.576;12.364;2023-05-14T09:29:32;3.95;;;3.00;;
6735;SDS011;3405;50.576;12.364;2023-05-14T09:31:58;3.50;;;3.17;;
6735;SDS011;3405;50.576;12.364;2023-05-14T09:34:32;3.63;;;3.33;;
6735;SDS011;3405;50.576;12.364;2023-05-14T09:36:59;4.28;;;3.15;;
6735;SDS011;3405;50.576;12.364;2023-05-14T09:39:26;3.13;;;2.80;;
6735;SDS011;3405;50.576;12.364;2023-05-14T09:41:53;4.22;;;2.67;;
6735;SDS011;3405;50.576;12.364;2023-05-14T09:44:21;3.33;;;2.70;;
6735;SDS011;3405;50.576;12.364;2023-05-14T09:46:47;3.53;;;2.67;;
6735;SDS011;3405;50.576;12.364;2023-05-14T09:49:13;4.47;;;2.83;;
6735;SDS011;3405;50.576;12.364;2023-05-14T09:51:39;3.22;;;2.92;;
6735;SDS011;3405;50.576;12.364;2023-05-14T09:54:06;3.92;;;2.95;;
6735;SDS011;3405;50.576;12.364;2023-05-14T09:56:32;6.05;;;3.00;;
6735;SDS011;3405;50.576;12.364;2023-05-14T09:58:58;3.47;;;2.95;;
6735;SDS011;3405;50.576;12.364;2023-05-14T10:01:24;4.65;;;3.47;;
6735;SDS011;3405;50.576;12.364;2023-05-14T10:04:00;3.70;;;3.30;;
6735;SDS011;3405;50.576;12.364;2023-05-14T10:06:37;6.78;;;3.47;;
6735;SDS011;3405;50.576;12.364;2023-05-14T10:09:03;6.43;;;3.47;;
6735;SDS011;3405;50.576;12.364;2023-05-14T10:11:30;6.53;;;3.40;;
6735;SDS011;3405;50.576;12.364;2023-05-14T10:14:06;3.15;;;2.65;;
6735;SDS011;3405;50.576;12.364;2023-05-14T10:16:33;3.03;;;2.83;;
6735;SDS011;3405;50.576;12.364;2023-05-14T10:19:00;8.90;;;3.35;;
6735;SDS011;3405;50.576;12.364;2023-05-14T10:21:29;12.50;;;7.47;;
6735;SDS011;3405;50.576;12.364;2023-05-14T10:23:56;52.00;;;30.50;;
6735;SDS011;3405;50.576;12.364;2023-05-14T10:26:22;64.85;;;36.83;;
6735;SDS011;3405;50.576;12.364;2023-05-14T10:28:49;86.60;;;48.85;;
6735;SDS011;3405;50.576;12.364;2023-05-14T10:31:15;74.32;;;41.88;;
6735;SDS011;3405;50.576;12.364;2023-05-14T10:33:48;58.55;;;35.92;;
6735;SDS011;3405;50.576;12.364;2023-05-14T10:36:14;58.38;;;34.38;;
6735;SDS011;3405;50.576;12.364;2023-05-14T10:38:40;47.33;;;29.35;;
6735;SDS011;3405;50.576;12.364;2023-05-14T10:41:10;42.50;;;26.55;;
6735;SDS011;3405;50.576;12.364;2023-05-14T10:43:37;41.67;;;26.20;;
6735;SDS011;3405;50.576;12.364;2023-05-14T10:46:03;40.28;;;24.50;;
6735;SDS011;3405;50.576;12.364;2023-05-14T10:48:30;43.92;;;26.17;;
6735;SDS011;3405;50.576;12.364;2023-05-14T10:50:56;25.63;;;16.10;;
6735;SDS011;3405;50.576;12.364;2023-05-14T10:53:30;27.83;;;18.92;;
6735;SDS011;3405;50.576;12.364;2023-05-14T10:55:56;29.20;;;18.17;;
6735;SDS011;3405;50.576;12.364;2023-05-14T10:58:22;29.85;;;17.98;;
6735;SDS011;3405;50.576;12.364;2023-05-14T11:00:48;19.63;;;13.00;;
6735;SDS011;3405;50.576;12.364;2023-05-14T11:03:19;23.88;;;14.32;;
6735;SDS011;3405;50.576;12.364;2023-05-14T11:05:45;20.77;;;12.38;;
6735;SDS011;3405;50.576;12.364;2023-05-14T11:08:12;18.60;;;11.07;;
6735;SDS011;3405;50.576;12.364;2023-05-14T11:10:38;24.88;;;12.65;;
6735;SDS011;3405;50.576;12.364;2023-05-14T11:13:04;14.73;;;8.25;;
6735;SDS011;3405;50.576;12.364;2023-05-14T11:15:30;17.05;;;9.73;;
6735;SDS011;3405;50.576;12.364;2023-05-14T11:17:56;14.88;;;8.77;;
6735;SDS011;3405;50.576;12.364;2023-05-14T11:20:22;12.05;;;7.93;;
6735;SDS011;3405;50.576;12.364;2023-05-14T11:22:48;17.13;;;8.27;;
6735;SDS011;3405;50.576;12.364;2023-05-14T11:25:15;20.17;;;8.20;;
6735;SDS011;3405;50.576;12.364;2023-05-14T11:27:43;8.27;;;5.20;;
6735;SDS011;3405;50.576;12.364;2023-05-14T11:30:13;9.32;;;5.78;;
6735;SDS011;3405;50.576;12.364;2023-05-14T11:32:39;7.20;;;3.97;;
6735;SDS011;3405;50.576;12.364;2023-05-14T11:35:05;7.90;;;3.97;;
6735;SDS011;3405;50.576;12.364;2023-05-14T11:37:31;8.60;;;5.20;;
6735;SDS011;3405;50.576;12.364;2023-05-14T11:39:58;8.77;;;5.80;;
6735;SDS011;3405;50.576;12.364;2023-05-14T11:42:24;6.22;;;4.65;;
6735;SDS011;3405;50.576;12.364;2023-05-14T11:44:51;8.85;;;4.90;;
6735;SDS011;3405;50.576;12.364;2023-05-14T11:47:18;6.10;;;4.65;;
6735;SDS011;3405;50.576;12.364;2023-05-14T11:49:44;6.00;;;4.65;;
6735;SDS011;3405;50.576;12.364;2023-05-14T11:52:12;5.13;;;4.10;;
6735;SDS011;3405;50.576;12.364;2023-05-14T11:54:38;5.13;;;4.13;;
6735;SDS011;3405;50.576;12.364;2023-05-14T11:57:12;6.90;;;4.40;;
6735;SDS011;3405;50.576;12.364;2023-05-14T11:59:38;7.25;;;4.13;;
6735;SDS011;3405;50.576;12.364;2023-05-14T12:02:07;5.85;;;3.97;;
6735;SDS011;3405;50.576;12.364;2023-05-14T12:04:32;5.07;;;3.80;;
6735;SDS011;3405;50.576;12.364;2023-05-14T12:06:59;5.63;;;4.18;;
6735;SDS011;3405;50.576;12.364;2023-05-14T12:09:25;7.03;;;4.15;;
6735;SDS011;3405;50.576;12.364;2023-05-14T12:11:51;8.32;;;4.03;;
6735;SDS011;3405;50.576;12.364;2023-05-14T12:14:18;7.80;;;4.00;;
6735;SDS011;3405;50.576;12.364;2023-05-14T12:16:44;7.78;;;4.20;;
6735;SDS011;3405;50.576;12.364;2023-05-14T12:19:11;9.27;;;4.13;;
6735;SDS011;3405;50.576;12.364;2023-05-14T12:21:38;5.78;;;3.88;;
6735;SDS011;3405;50.576;12.364;2023-05-14T12:24:08;5.68;;;3.30;;
6735;SDS011;3405;50.576;12.364;2023-05-14T12:26:34;4.07;;;3.58;;
6735;SDS011;3405;50.576;12.364;2023-05-14T12:29:02;4.95;;;3.72;;
6735;SDS011;3405;50.576;12.364;2023-05-14T12:31:29;4.30;;;3.60;;
6735;SDS011;3405;50.576;12.364;2023-05-14T12:33:55;5.07;;;3.50;;
6735;SDS011;3405;50.576;12.364;2023-05-14T12:36:21;4.82;;;3.33;;
6735;SDS011;3405;50.576;12.364;2023-05-14T12:38:47;3.97;;;3.42;;
6735;SDS011;3405;50.576;12.364;2023-05-14T12:41:13;4.20;;;3.42;;
6735;SDS011;3405;50.576;12.364;2023-05-14T12:43:43;4.13;;;3.08;;
6735;SDS011;3405;50.576;12.364;2023-05-14T12:46:09;4.43;;;3.30;;
6735;SDS011;3405;50.576;12.364;2023-05-14T12:48:35;4.25;;;3.20;;
6735;SDS011;3405;50.576;12.364;2023-05-14T12:51:01;7.78;;;4.55;;
6735;SDS011;3405;50.576;12.364;2023-05-14T12:53:27;11.15;;;5.68;;
6735;SDS011;3405;50.576;12.364;2023-05-14T12:55:53;24.85;;;7.45;;
6735;SDS011;3405;50.576;12.364;2023-05-14T12:58:19;22.38;;;8.07;;
6735;SDS011;3405;50.576;12.364;2023-05-14T13:00:45;31.70;;;7.60;;
6735;SDS011;3405;50.576;12.364;2023-05-14T13:03:11;18.02;;;7.05;;
6735;SDS011;3405;50.576;12.364;2023-05-14T13:05:37;22.83;;;6.35;;
6735;SDS011;3405;50.576;12.364;2023-05-14T13:08:03;26.65;;;7.82;;
6735;SDS011;3405;50.576;12.364;2023-05-14T13:10:29;23.25;;;8.02;;
6735;SDS011;3405;50.576;12.364;2023-05-14T13:12:54;24.67;;;7.63;;
6735;SDS011;3405;50.576;12.364;2023-05-14T13:15:21;20.90;;;7.47;;
6735;SDS011;3405;50.576;12.364;2023-05-14T13:17:47;17.52;;;7.15;;
6735;SDS011;3405;50.576;12.364;2023-05-14T13:20:13;20.80;;;7.55;;
6735;SDS011;3405;50.576;12.364;2023-05-14T13:22:39;18.45;;;6.47;;
6735;SDS011;3405;50.576;12.364;2023-05-14T13:25:05;24.48;;;7.45;;
6735;SDS011;3405;50.576;12.364;2023-05-14T13:27:31;18.25;;;7.07;;
6735;SDS011;3405;50.576;12.364;2023-05-14T13:29:59;16.95;;;6.28;;
6735;SDS011;3405;50.576;12.364;2023-05-14T13:32:25;14.57;;;6.20;;
6735;SDS011;3405;50.576;12.364;2023-05-14T13:34:51;17.52;;;7.15;;
6735;SDS011;3405;50.576;12.364;2023-05-14T13:37:17;13.80;;;6.15;;
6735;SDS011;3405;50.576;12.364;2023-05-14T13:39:43;13.88;;;6.32;;
6735;SDS011;3405;50.576;12.364;2023-05-14T13:42:09;18.35;;;6.78;;
6735;SDS011;3405;50.576;12.364;2023-05-14T13:44:35;15.48;;;5.95;;
6735;SDS011;3405;50.576;12.364;2023-05-14T13:47:01;14.73;;;5.97;;
6735;SDS011;3405;50.576;12.364;2023-05-14T13:49:27;15.20;;;5.65;;
6735;SDS011;3405;50.576;12.364;2023-05-14T13:51:53;11.77;;;5.38;;
6735;SDS011;3405;50.576;12.364;2023-05-14T13:54:18;15.00;;;6.25;;
6735;SDS011;3405;50.576;12.364;2023-05-14T13:56:44;13.63;;;6.03;;
6735;SDS011;3405;50.576;12.364;2023-05-14T13:59:10;11.65;;;5.20;;
6735;SDS011;3405;50.576;12.364;2023-05-14T14:01:36;16.13;;;6.00;;
6735;SDS011;3405;50.576;12.364;2023-05-14T14:04:02;12.85;;;5.15;;
6735;SDS011;3405;50.576;12.364;2023-05-14T14:06:29;10.75;;;5.40;;
6735;SDS011;3405;50.576;12.364;2023-05-14T14:08:58;8.45;;;4.70;;
6735;SDS011;3405;50.576;12.364;2023-05-14T14:11:24;8.82;;;4.65;;
6735;SDS011;3405;50.576;12.364;2023-05-14T14:13:50;9.05;;;4.80;;
6735;SDS011;3405;50.576;12.364;2023-05-14T14:16:16;8.00;;;4.68;;
6735;SDS011;3405;50.576;12.364;2023-05-14T14:18:43;8.45;;;4.70;;
6735;SDS011;3405;50.576;12.364;2023-05-14T14:21:09;8.40;;;4.32;;
6735;SDS011;3405;50.576;12.364;2023-05-14T14:23:34;9.88;;;4.53;;
6735;SDS011;3405;50.576;12.364;2023-05-14T14:26:00;6.90;;;4.10;;
6735;SDS011;3405;50.576;12.364;2023-05-14T14:28:26;7.72;;;4.53;;
6735;SDS011;3405;50.576;12.364;2023-05-14T14:30:52;8.82;;;4.63;;
6735;SDS011;3405;50.576;12.364;2023-05-14T14:33:18;7.88;;;4.30;;
6735;SDS011;3405;50.576;12.364;2023-05-14T14:35:44;7.93;;;4.18;;
6735;SDS011;3405;50.576;12.364;2023-05-14T14:38:10;9.50;;;4.10;;
6735;SDS011;3405;50.576;12.364;2023-05-14T14:40:36;7.07;;;4.38;;
6735;SDS011;3405;50.576;12.364;2023-05-14T14:43:02;6.18;;;4.03;;
6735;SDS011;3405;50.576;12.364;2023-05-14T14:45:28;6.45;;;4.18;;
6735;SDS011;3405;50.576;12.364;2023-05-14T14:48:20;6.28;;;4.03;;
6735;SDS011;3405;50.576;12.364;2023-05-14T14:50:40;7.45;;;4.30;;
6735;SDS011;3405;50.576;12.364;2023-05-14T14:53:06;6.90;;;3.80;;
6735;SDS011;3405;50.576;12.364;2023-05-14T14:55:32;7.28;;;4.10;;
6735;SDS011;3405;50.576;12.364;2023-05-14T14:57:57;6.60;;;3.97;;